Time;durP1;ratioP1;P1;durP2;ratioP2;P2;SDS_P1;SDS_P2;PMS_P1;PMS_P2;Temp;Humidity;BMP_temperature;BMP_pressure;BME280_temperature;BME280_humidity;BME280_pressure;Samples;Min_cycle;Max_cycle;Signal;HPM_P1;HPM_P2
2021/03/27 00:01:44;;;;;;;9.20;5.78;;;;;;;;;;5156017;27;20224;-71
2021/03/27 00:04:12;;;;;;;6.22;4.60;;;;;;;;;;5155721;27;20212;-71
2021/03/27 00:06:40;;;;;;;9.07;5.05;;;;;;;;;;5155796;27;20218;-73
2021/03/27 00:09:11;;;;;;;8.82;5.63;;;;;;;;;;5155803;27;20201;-71
2021/03/27 00:11:41;;;;;;;8.70;5.15;;;;;;;;;;5156098;27;20282;-71
2021/03/27 00:14:09;;;;;;;9.10;4.95;;;;;;;;;;5156005;27;20319;-72
2021/03/27 00:16:37;;;;;;;8.82;3.72;;;;;;;;;;5155743;27;20223;-72
2021/03/27 00:19:06;;;;;;;7.68;4.10;;;;;;;;;;5155789;27;20194;-72
2021/03/27 00:21:34;;;;;;;8.77;4.68;;;;;;;;;;5155404;27;20226;-72
2021/03/27 00:24:02;;;;;;;8.15;4.80;;;;;;;;;;5155762;27;20198;-72
2021/03/27 00:26:31;;;;;;;5.97;4.35;;;;;;;;;;5155579;27;20233;-72
2021/03/27 00:28:58;;;;;;;7.20;4.32;;;;;;;;;;5155748;27;20212;-71
2021/03/27 00:31:26;;;;;;;7.07;3.97;;;;;;;;;;5155071;27;20194;-72
2021/03/27 00:33:53;;;;;;;6.70;4.32;;;;;;;;;;5155330;27;20623;-72
2021/03/27 00:36:22;;;;;;;3.95;3.40;;;;;;;;;;5154984;27;20324;-72
2021/03/27 00:38:49;;;;;;;4.75;3.15;;;;;;;;;;5155626;27;20620;-71
2021/03/27 00:41:18;;;;;;;6.35;3.72;;;;;;;;;;5155084;27;20237;-72
2021/03/27 00:43:46;;;;;;;4.68;3.45;;;;;;;;;;5155121;27;20641;-72
2021/03/27 00:46:13;;;;;;;3.65;2.72;;;;;;;;;;5154917;27;20556;-72
2021/03/27 00:48:43;;;;;;;6.18;3.58;;;;;;;;;;5155438;27;20222;-73
2021/03/27 00:51:11;;;;;;;1.95;1.60;;;;;;;;;;5154969;27;20675;-73
2021/03/27 00:53:40;;;;;;;2.65;2.33;;;;;;;;;;5154962;27;20233;-72
2021/03/27 00:56:11;;;;;;;3.85;2.60;;;;;;;;;;5155102;27;20213;-72
2021/03/27 00:58:40;;;;;;;3.05;2.75;;;;;;;;;;5155037;27;20204;-71
2021/03/27 01:01:08;;;;;;;12.63;3.40;;;;;;;;;;5155177;27;20236;-73
2021/03/27 01:03:36;;;;;;;3.20;2.83;;;;;;;;;;5154919;27;20179;-72
2021/03/27 01:06:05;;;;;;;3.13;2.22;;;;;;;;;;5155136;27;20626;-72
2021/03/27 01:08:32;;;;;;;3.78;2.10;;;;;;;;;;5155052;27;20251;-73
2021/03/27 01:11:00;;;;;;;1.40;1.20;;;;;;;;;;5155049;27;20275;-72
2021/03/27 01:13:29;;;;;;;1.00;0.80;;;;;;;;;;5154828;27;20199;-72
2021/03/27 01:15:57;;;;;;;1.73;0.75;;;;;;;;;;5154694;27;20247;-73
2021/03/27 01:18:27;;;;;;;1.45;0.95;;;;;;;;;;5154699;27;20676;-73
2021/03/27 01:20:56;;;;;;;0.90;0.60;;;;;;;;;;5154871;27;20201;-72
2021/03/27 01:23:22;;;;;;;2.38;2.17;;;;;;;;;;5154978;27;20221;-72
2021/03/27 01:25:48;;;;;;;1.20;0.88;;;;;;;;;;5154476;27;20247;-72
2021/03/27 01:28:20;;;;;;;0.98;0.63;;;;;;;;;;5154170;27;20219;-71
2021/03/27 01:30:51;;;;;;;0.70;0.50;;;;;;;;;;5154324;27;20268;-72
2021/03/27 01:33:20;;;;;;;0.90;0.60;;;;;;;;;;5154750;27;20197;-71
2021/03/27 01:35:48;;;;;;;0.90;0.90;;;;;;;;;;5154158;27;20670;-72
2021/03/27 01:38:16;;;;;;;0.90;0.68;;;;;;;;;;5154348;27;20265;-73
2021/03/27 01:40:48;;;;;;;0.70;0.60;;;;;;;;;;5154504;27;20292;-73
2021/03/27 01:43:20;;;;;;;0.70;0.60;;;;;;;;;;5153742;27;20238;-73
2021/03/27 01:46:13;;;;;;;0.80;0.70;;;;;;;;;;5154565;27;20221;-72
2021/03/27 01:48:43;;;;;;;1.90;1.00;;;;;;;;;;5154009;27;20189;-72
2021/03/27 01:51:26;;;;;;;1.13;0.60;;;;;;;;;;5154412;27;20236;-72
2021/03/27 01:53:54;;;;;;;1.23;0.75;;;;;;;;;;5153897;27;20198;-73
2021/03/27 01:56:25;;;;;;;0.80;0.60;;;;;;;;;;5154320;27;20265;-72
2021/03/27 01:58:55;;;;;;;0.70;0.70;;;;;;;;;;5154434;27;20598;-72
2021/03/27 02:01:22;;;;;;;0.90;0.63;;;;;;;;;;5154389;27;20201;-73
2021/03/27 02:03:51;;;;;;;2.30;1.10;;;;;;;;;;5153963;27;20178;-71
2021/03/27 02:06:20;;;;;;;0.80;0.70;;;;;;;;;;5154162;27;20281;-71
2021/03/27 02:08:51;;;;;;;2.38;1.30;;;;;;;;;;5154135;27;20182;-71
2021/03/27 02:11:22;;;;;;;0.88;0.70;;;;;;;;;;5154217;27;20214;-71
2021/03/27 02:13:49;;;;;;;2.33;1.65;;;;;;;;;;5154237;27;20239;-72
2021/03/27 02:16:20;;;;;;;3.47;1.67;;;;;;;;;;5153637;27;20217;-72
2021/03/27 02:18:53;;;;;;;1.33;1.23;;;;;;;;;;5154178;27;20269;-71
2021/03/27 02:21:33;;;;;;;0.77;0.65;;;;;;;;;;5154076;27;20515;-72
2021/03/27 02:24:01;;;;;;;1.10;0.90;;;;;;;;;;5154116;27;20223;-71
2021/03/27 02:26:42;;;;;;;3.03;0.88;;;;;;;;;;5153745;27;20205;-72
2021/03/27 02:29:27;;;;;;;1.05;0.70;;;;;;;;;;5149745;27;20197;-72
2021/03/27 02:31:55;;;;;;;1.10;0.80;;;;;;;;;;5154100;27;20206;-72
2021/03/27 02:34:23;;;;;;;0.90;0.77;;;;;;;;;;5153419;27;20194;-72
2021/03/27 02:36:55;;;;;;;1.10;1.00;;;;;;;;;;5153395;27;20225;-71
2021/03/27 02:39:23;;;;;;;0.70;0.70;;;;;;;;;;5153765;27;20637;-72
2021/03/27 02:41:56;;;;;;;1.13;0.90;;;;;;;;;;5153472;27;20237;-71
2021/03/27 02:44:27;;;;;;;1.63;1.20;;;;;;;;;;5153302;27;20179;-71
2021/03/27 02:46:56;;;;;;;3.38;0.70;;;;;;;;;;5153420;27;20738;-71
2021/03/27 02:49:29;;;;;;;4.63;1.00;;;;;;;;;;5153457;27;20205;-72
2021/03/27 02:51:59;;;;;;;0.80;0.70;;;;;;;;;;5153729;27;20182;-72
2021/03/27 02:54:29;;;;;;;1.30;1.20;;;;;;;;;;5156990;27;20229;-72
2021/03/27 02:56:57;;;;;;;1.52;0.98;;;;;;;;;;5157374;27;20208;-72
2021/03/27 02:59:30;;;;;;;1.33;0.68;;;;;;;;;;5156733;27;20189;-72
2021/03/27 03:01:59;;;;;;;2.45;0.90;;;;;;;;;;5157371;27;20194;-71
2021/03/27 03:04:33;;;;;;;0.95;0.95;;;;;;;;;;5157257;27;20204;-72
2021/03/27 03:07:02;;;;;;;2.38;1.10;;;;;;;;;;5156978;27;20221;-72
2021/03/27 03:09:33;;;;;;;0.80;0.70;;;;;;;;;;5156634;27;20295;-71
2021/03/27 03:12:03;;;;;;;1.75;0.90;;;;;;;;;;5157289;27;20220;-71
2021/03/27 03:14:32;;;;;;;1.25;1.13;;;;;;;;;;5156642;27;20190;-72
2021/03/27 03:17:01;;;;;;;1.60;1.23;;;;;;;;;;5157151;27;20198;-72
2021/03/27 03:19:30;;;;;;;1.00;0.90;;;;;;;;;;5157162;27;20225;-72
2021/03/27 03:22:11;;;;;;;0.85;0.80;;;;;;;;;;5156837;27;20190;-72
2021/03/27 03:24:38;;;;;;;2.30;0.90;;;;;;;;;;5156694;27;20222;-72
2021/03/27 03:27:10;;;;;;;1.48;1.00;;;;;;;;;;5156550;27;20655;-74
2021/03/27 03:29:46;;;;;;;1.08;0.93;;;;;;;;;;5156306;27;20204;-72
2021/03/27 03:32:17;;;;;;;1.10;1.00;;;;;;;;;;5156555;27;20183;-70
2021/03/27 03:34:50;;;;;;;1.10;1.00;;;;;;;;;;5157006;27;20620;-73
2021/03/27 03:37:20;;;;;;;0.98;0.80;;;;;;;;;;5155979;27;20312;-70
2021/03/27 03:39:55;;;;;;;1.45;1.05;;;;;;;;;;5157076;27;20627;-71
2021/03/27 03:42:34;;;;;;;1.10;0.80;;;;;;;;;;5156533;27;20274;-73
2021/03/27 03:45:05;;;;;;;1.23;0.98;;;;;;;;;;5155915;27;20193;-72
2021/03/27 03:47:34;;;;;;;1.10;1.00;;;;;;;;;;5156108;27;20322;-71
2021/03/27 03:50:11;;;;;;;0.98;0.80;;;;;;;;;;5156205;27;20186;-71
2021/03/27 03:52:42;;;;;;;0.93;0.70;;;;;;;;;;5156658;27;20658;-71
2021/03/27 03:55:15;;;;;;;1.05;0.80;;;;;;;;;;5156363;27;20560;-71
2021/03/27 03:57:48;;;;;;;2.65;2.45;;;;;;;;;;5156753;27;20203;-72
2021/03/27 04:00:16;;;;;;;1.95;1.27;;;;;;;;;;5156236;27;20334;-71
2021/03/27 04:02:44;;;;;;;1.33;0.90;;;;;;;;;;5155672;27;20201;-72
2021/03/27 04:05:13;;;;;;;1.10;0.70;;;;;;;;;;5154996;27;20237;-72
2021/03/27 04:07:41;;;;;;;2.38;1.08;;;;;;;;;;5156127;27;20250;-73
2021/03/27 04:10:11;;;;;;;0.93;0.82;;;;;;;;;;5156312;27;20224;-71
2021/03/27 04:12:39;;;;;;;0.90;0.80;;;;;;;;;;5155887;27;20339;-72
2021/03/27 04:15:14;;;;;;;0.80;0.70;;;;;;;;;;5155850;27;20228;-72
2021/03/27 04:17:43;;;;;;;1.00;0.90;;;;;;;;;;5156131;27;20253;-71
2021/03/27 04:20:10;;;;;;;1.00;1.00;;;;;;;;;;5156357;27;20210;-72
2021/03/27 04:22:40;;;;;;;1.20;0.77;;;;;;;;;;5155641;27;20323;-71
2021/03/27 04:25:23;;;;;;;2.25;1.23;;;;;;;;;;5155874;27;20205;-72
2021/03/27 04:27:51;;;;;;;1.80;1.20;;;;;;;;;;5155809;27;20270;-71
2021/03/27 04:30:23;;;;;;;5.63;1.42;;;;;;;;;;5155494;27;20727;-71
2021/03/27 04:32:54;;;;;;;1.98;1.50;;;;;;;;;;5155100;27;20193;-72
2021/03/27 04:35:26;;;;;;;2.35;1.48;;;;;;;;;;5155248;27;20246;-72
2021/03/27 04:38:02;;;;;;;0.80;0.70;;;;;;;;;;5155422;27;20648;-71
2021/03/27 04:40:31;;;;;;;1.00;0.90;;;;;;;;;;5155700;27;20235;-72
2021/03/27 04:42:58;;;;;;;1.40;1.02;;;;;;;;;;5155174;27;20202;-73
2021/03/27 04:45:25;;;;;;;1.50;1.40;;;;;;;;;;5155358;27;20291;-72
2021/03/27 04:48:05;;;;;;;4.03;1.02;;;;;;;;;;5155367;27;20208;-71
2021/03/27 04:50:34;;;;;;;1.25;1.15;;;;;;;;;;5155267;27;20182;-72
2021/03/27 04:53:04;;;;;;;1.98;1.33;;;;;;;;;;5155458;27;20213;-71
2021/03/27 04:55:34;;;;;;;5.85;1.73;;;;;;;;;;5155236;27;20190;-72
2021/03/27 04:58:18;;;;;;;1.25;1.10;;;;;;;;;;5155151;27;20601;-72
2021/03/27 05:00:48;;;;;;;1.08;0.98;;;;;;;;;;5154405;27;20629;-72
2021/03/27 05:03:17;;;;;;;2.28;1.30;;;;;;;;;;5154919;27;20651;-72
2021/03/27 05:05:46;;;;;;;2.03;1.23;;;;;;;;;;5154994;27;20182;-72
2021/03/27 05:08:15;;;;;;;1.23;1.02;;;;;;;;;;5154340;27;20222;-74
2021/03/27 05:10:44;;;;;;;3.08;0.80;;;;;;;;;;5154338;27;20185;-71
2021/03/27 05:13:18;;;;;;;2.55;1.48;;;;;;;;;;5154477;27;20217;-74
2021/03/27 05:15:49;;;;;;;3.92;2.00;;;;;;;;;;5154505;27;20232;-71
2021/03/27 05:18:33;;;;;;;1.40;1.15;;;;;;;;;;5154913;27;20197;-71
2021/03/27 05:21:04;;;;;;;2.90;1.50;;;;;;;;;;5154618;27;20202;-72
2021/03/27 05:23:37;;;;;;;2.35;1.30;;;;;;;;;;5154854;27;20224;-72
2021/03/27 05:26:09;;;;;;;3.15;1.60;;;;;;;;;;5155039;27;20537;-72
2021/03/27 05:28:56;;;;;;;1.23;1.08;;;;;;;;;;5154401;27;20221;-72
2021/03/27 05:31:25;;;;;;;8.68;1.65;;;;;;;;;;5119719;27;20272;-73
2021/03/27 05:34:00;;;;;;;1.20;1.10;;;;;;;;;;5153852;27;20233;-72
2021/03/27 05:36:31;;;;;;;2.40;1.58;;;;;;;;;;5154546;27;20251;-72
2021/03/27 05:39:04;;;;;;;1.38;1.20;;;;;;;;;;5154819;27;20188;-71
2021/03/27 05:41:37;;;;;;;3.15;1.40;;;;;;;;;;5154916;27;20216;-72
2021/03/27 05:44:31;;;;;;;1.85;1.60;;;;;;;;;;5154620;27;20576;-72
2021/03/27 05:47:11;;;;;;;2.50;1.20;;;;;;;;;;5155253;27;20277;-72
2021/03/27 05:50:01;;;;;;;1.75;1.38;;;;;;;;;;5155025;27;20205;-71
2021/03/27 05:52:39;;;;;;;1.15;0.80;;;;;;;;;;5155589;27;20558;-72
2021/03/27 05:55:32;;;;;;;1.42;1.15;;;;;;;;;;5155468;27;20314;-72
2021/03/27 05:58:16;;;;;;;1.45;0.98;;;;;;;;;;5155207;27;20269;-73
2021/03/27 06:00:50;;;;;;;1.42;1.30;;;;;;;;;;5155229;27;20591;-72
2021/03/27 06:03:31;;;;;;;1.90;1.38;;;;;;;;;;5154896;27;20253;-72
2021/03/27 06:06:08;;;;;;;1.27;1.17;;;;;;;;;;5133127;27;20233;-71
2021/03/27 06:08:37;;;;;;;3.95;1.05;;;;;;;;;;5154722;27;20293;-72
2021/03/27 06:11:15;;;;;;;1.70;1.38;;;;;;;;;;5155079;27;20624;-72
2021/03/27 06:13:47;;;;;;;2.78;1.25;;;;;;;;;;5154896;27;20264;-72
2021/03/27 06:16:43;;;;;;;1.83;1.10;;;;;;;;;;5154800;27;20210;-71
2021/03/27 06:19:28;;;;;;;1.92;1.48;;;;;;;;;;5050303;28;20311;-72
2021/03/27 06:22:03;;;;;;;1.73;1.40;;;;;;;;;;5142240;27;20293;-71
2021/03/27 06:24:41;;;;;;;2.08;1.30;;;;;;;;;;5154214;27;20247;-72
2021/03/27 06:27:40;;;;;;;1.70;1.60;;;;;;;;;;5153650;27;20202;-72
2021/03/27 06:30:21;;;;;;;1.13;1.00;;;;;;;;;;5158199;27;20189;-72
2021/03/27 06:33:11;;;;;;;1.55;1.45;;;;;;;;;;5157671;27;20201;-72
2021/03/27 06:35:47;;;;;;;2.35;1.55;;;;;;;;;;5157657;27;20260;-71
2021/03/27 06:38:25;;;;;;;1.98;1.77;;;;;;;;;;5157214;27;20276;-72
2021/03/27 06:41:09;;;;;;;4.45;1.42;;;;;;;;;;5157827;27;20609;-72
2021/03/27 06:43:55;;;;;;;4.82;1.35;;;;;;;;;;5157138;27;20284;-72
2021/03/27 06:46:48;;;;;;;1.20;1.10;;;;;;;;;;5156792;27;20188;-72
2021/03/27 06:49:27;;;;;;;1.00;0.90;;;;;;;;;;5096954;27;20205;-71
2021/03/27 06:52:01;;;;;;;1.20;1.05;;;;;;;;;;5157026;27;20250;-72
2021/03/27 06:54:42;;;;;;;1.15;1.05;;;;;;;;;;5157303;27;20270;-71
2021/03/27 06:57:17;;;;;;;2.85;0.80;;;;;;;;;;5157036;27;20185;-71
2021/03/27 06:59:59;;;;;;;1.40;1.05;;;;;;;;;;5157720;27;20190;-72
2021/03/27 07:02:47;;;;;;;2.28;1.30;;;;;;;;;;5156957;27;20246;-72
2021/03/27 07:05:34;;;;;;;6.88;1.60;;;;;;;;;;5156972;27;20198;-71
2021/03/27 07:08:10;;;;;;;1.25;1.13;;;;;;;;;;5157093;27;20228;-72
2021/03/27 07:10:46;;;;;;;3.13;1.30;;;;;;;;;;5156969;27;20635;-72
2021/03/27 07:13:30;;;;;;;1.10;1.00;;;;;;;;;;5156840;27;20186;-71
2021/03/27 07:16:17;;;;;;;2.45;1.30;;;;;;;;;;5105366;27;20695;-72
2021/03/27 07:19:09;;;;;;;1.05;0.95;;;;;;;;;;5148210;27;20198;-71
2021/03/27 07:22:02;;;;;;;9.18;1.48;;;;;;;;;;5156838;27;20221;-72
2021/03/27 07:24:47;;;;;;;1.80;0.90;;;;;;;;;;5156819;27;20186;-71
2021/03/27 07:27:35;;;;;;;1.20;1.08;;;;;;;;;;5156159;27;20269;-71
2021/03/27 07:30:22;;;;;;;2.10;1.30;;;;;;;;;;5156387;27;20201;-72
2021/03/27 07:33:03;;;;;;;3.47;1.27;;;;;;;;;;5156641;27;20539;-72
2021/03/27 07:35:36;;;;;;;1.75;1.30;;;;;;;;;;5111017;27;20292;-72
2021/03/27 07:38:23;;;;;;;4.18;1.30;;;;;;;;;;5156491;27;20289;-73
2021/03/27 07:40:58;;;;;;;2.85;1.52;;;;;;;;;;5155222;27;20257;-71
2021/03/27 07:43:35;;;;;;;7.03;2.55;;;;;;;;;;5156715;27;20743;-71
2021/03/27 07:46:28;;;;;;;1.10;1.00;;;;;;;;;;5156153;27;20250;-72
2021/03/27 07:49:20;;;;;;;1.45;1.10;;;;;;;;;;5156418;27;20242;-71
2021/03/27 07:51:57;;;;;;;1.45;1.20;;;;;;;;;;5156640;27;20600;-72
2021/03/27 07:54:41;;;;;;;0.90;0.90;;;;;;;;;;5156490;27;20186;-71
2021/03/27 07:57:14;;;;;;;2.15;1.48;;;;;;;;;;5156628;27;20286;-72
2021/03/27 07:59:47;;;;;;;1.90;1.40;;;;;;;;;;5156249;27;20628;-70
2021/03/27 08:02:31;;;;;;;1.27;1.15;;;;;;;;;;5156140;27;20217;-73
2021/03/27 08:05:05;;;;;;;2.85;1.27;;;;;;;;;;5156082;27;20198;-70
2021/03/27 08:07:42;;;;;;;4.75;1.40;;;;;;;;;;5155554;27;20253;-72
2021/03/27 08:10:23;;;;;;;1.95;1.75;;;;;;;;;;5155627;27;20217;-72
2021/03/27 08:13:12;;;;;;;2.75;1.10;;;;;;;;;;5155674;27;20206;-72
2021/03/27 08:16:02;;;;;;;1.58;1.02;;;;;;;;;;5129969;27;20199;-72
2021/03/27 08:18:38;;;;;;;2.85;1.55;;;;;;;;;;5155602;27;20197;-71
2021/03/27 08:21:10;;;;;;;4.47;2.92;;;;;;;;;;5155463;27;20284;-71
2021/03/27 08:23:39;;;;;;;2.05;1.10;;;;;;;;;;5155527;27;20201;-72
2021/03/27 08:26:23;;;;;;;2.42;1.10;;;;;;;;;;5155554;27;20233;-72
2021/03/27 08:29:07;;;;;;;7.65;1.55;;;;;;;;;;5156324;27;20290;-71
2021/03/27 08:31:48;;;;;;;3.65;1.60;;;;;;;;;;5155883;27;20637;-72
2021/03/27 08:34:35;;;;;;;1.42;1.23;;;;;;;;;;5152059;27;20714;-72
2021/03/27 08:37:25;;;;;;;2.88;1.55;;;;;;;;;;5155090;27;20266;-72
2021/03/27 08:40:06;;;;;;;1.98;1.00;;;;;;;;;;5155654;27;20204;-73
2021/03/27 08:42:50;;;;;;;1.73;1.13;;;;;;;;;;5150665;27;20202;-73
2021/03/27 08:45:22;;;;;;;1.75;1.30;;;;;;;;;;5154697;27;20242;-70
2021/03/27 08:47:55;;;;;;;1.25;0.95;;;;;;;;;;5154725;27;20248;-72
2021/03/27 08:50:36;;;;;;;3.97;1.70;;;;;;;;;;5154935;27;20195;-72
2021/03/27 08:53:16;;;;;;;3.45;1.38;;;;;;;;;;5155009;27;20192;-72
2021/03/27 08:56:03;;;;;;;2.90;0.90;;;;;;;;;;5155299;27;20183;-72
2021/03/27 08:58:43;;;;;;;1.70;1.10;;;;;;;;;;5155040;27;20202;-72
2021/03/27 09:01:18;;;;;;;1.77;1.25;;;;;;;;;;5155162;27;20281;-71
2021/03/27 09:04:01;;;;;;;3.55;0.88;;;;;;;;;;5154878;27;20240;-72
2021/03/27 09:06:35;;;;;;;1.15;0.93;;;;;;;;;;5154274;27;20206;-72
2021/03/27 09:09:15;;;;;;;4.45;1.30;;;;;;;;;;5154399;27;20306;-72
2021/03/27 09:11:50;;;;;;;12.18;2.05;;;;;;;;;;5150604;27;20255;-73
2021/03/27 09:14:24;;;;;;;3.67;1.40;;;;;;;;;;5154063;27;20651;-72
2021/03/27 09:17:04;;;;;;;1.30;1.00;;;;;;;;;;5154154;27;20251;-72
2021/03/27 09:19:46;;;;;;;3.53;1.60;;;;;;;;;;5153898;27;20189;-72
2021/03/27 09:22:31;;;;;;;1.20;1.00;;;;;;;;;;5153857;27;20190;-71
2021/03/27 09:25:02;;;;;;;1.30;1.20;;;;;;;;;;5154663;27;20193;-72
2021/03/27 09:27:46;;;;;;;6.63;1.60;;;;;;;;;;5154415;27;20731;-72
2021/03/27 09:30:18;;;;;;;4.35;1.42;;;;;;;;;;5154077;27;20201;-73
2021/03/27 09:32:47;;;;;;;3.20;1.40;;;;;;;;;;5154465;27;20580;-72
2021/03/27 09:35:24;;;;;;;4.93;1.55;;;;;;;;;;5153868;27;20198;-73
2021/03/27 09:38:02;;;;;;;1.20;1.10;;;;;;;;;;5153831;27;20560;-72
2021/03/27 09:40:32;;;;;;;1.20;0.60;;;;;;;;;;5153975;27;20311;-73
2021/03/27 09:43:07;;;;;;;4.50;1.98;;;;;;;;;;5154516;27;20703;-72
2021/03/27 09:45:37;;;;;;;1.90;0.93;;;;;;;;;;5153864;27;20201;-72
2021/03/27 09:48:33;;;;;;;2.40;0.95;;;;;;;;;;5154131;27;20214;-73
2021/03/27 09:51:07;;;;;;;5.10;1.20;;;;;;;;;;5154298;27;20237;-72
2021/03/27 09:53:35;;;;;;;2.03;1.50;;;;;;;;;;5154307;27;20537;-71
2021/03/27 09:56:04;;;;;;;5.00;0.95;;;;;;;;;;5153994;27;20699;-72
2021/03/27 09:58:41;;;;;;;5.45;1.40;;;;;;;;;;5153866;27;20189;-70
2021/03/27 10:01:17;;;;;;;9.63;2.00;;;;;;;;;;5155132;27;20197;-72
2021/03/27 10:03:48;;;;;;;2.17;1.10;;;;;;;;;;5153148;27;20250;-72
2021/03/27 10:06:29;;;;;;;1.50;0.95;;;;;;;;;;5156697;27;20251;-71
2021/03/27 10:09:00;;;;;;;3.35;1.92;;;;;;;;;;5153677;27;20316;-72
2021/03/27 10:11:28;;;;;;;4.65;0.93;;;;;;;;;;5158595;27;20642;-73
2021/03/27 10:13:57;;;;;;;1.40;1.23;;;;;;;;;;5153519;27;20208;-74
2021/03/27 10:16:26;;;;;;;3.47;1.35;;;;;;;;;;5153768;27;20615;-72
2021/03/27 10:18:58;;;;;;;1.95;1.75;;;;;;;;;;5153924;27;20202;-71
2021/03/27 10:21:29;;;;;;;12.05;2.75;;;;;;;;;;5153883;27;20530;-73
2021/03/27 10:23:59;;;;;;;5.53;1.60;;;;;;;;;;5153581;27;20189;-73
2021/03/27 10:26:30;;;;;;;2.47;1.25;;;;;;;;;;5153881;27;20265;-72
2021/03/27 10:28:58;;;;;;;4.47;1.00;;;;;;;;;;5153597;27;20222;-72
2021/03/27 10:31:26;;;;;;;1.90;1.35;;;;;;;;;;5153228;27;20197;-72
2021/03/27 10:33:57;;;;;;;2.05;1.85;;;;;;;;;;5153611;27;20285;-71
2021/03/27 10:36:44;;;;;;;3.38;1.23;;;;;;;;;;5153435;27;20237;-73
2021/03/27 10:39:17;;;;;;;2.08;1.23;;;;;;;;;;5145320;27;20235;-72
2021/03/27 10:41:57;;;;;;;6.30;1.23;;;;;;;;;;5153409;27;20191;-71
2021/03/27 10:44:31;;;;;;;2.95;1.40;;;;;;;;;;5097112;27;20211;-72
2021/03/27 10:47:01;;;;;;;2.85;0.98;;;;;;;;;;5153214;27;20192;-73
2021/03/27 10:49:29;;;;;;;1.33;1.02;;;;;;;;;;5153485;27;20191;-73
2021/03/27 10:52:13;;;;;;;2.03;1.00;;;;;;;;;;5153127;27;20223;-73
2021/03/27 10:55:00;;;;;;;3.28;1.33;;;;;;;;;;5153552;27;20284;-72
2021/03/27 10:57:40;;;;;;;4.07;1.25;;;;;;;;;;5109702;27;20194;-72
2021/03/27 11:00:12;;;;;;;3.90;1.05;;;;;;;;;;5152873;27;20201;-71
2021/03/27 11:02:43;;;;;;;4.70;1.40;;;;;;;;;;5153351;27;20207;-73
2021/03/27 11:05:24;;;;;;;3.35;1.25;;;;;;;;;;5152559;27;20202;-72
2021/03/27 11:08:08;;;;;;;1.67;1.00;;;;;;;;;;5152998;27;20220;-72
2021/03/27 11:10:52;;;;;;;2.05;0.90;;;;;;;;;;5153090;27;20635;-71
2021/03/27 11:13:33;;;;;;;3.55;1.50;;;;;;;;;;5152832;27;20276;-71
2021/03/27 11:16:14;;;;;;;5.13;1.30;;;;;;;;;;5133961;27;20215;-73
2021/03/27 11:18:47;;;;;;;1.02;0.70;;;;;;;;;;5100729;27;20207;-71
2021/03/27 11:21:25;;;;;;;2.25;1.05;;;;;;;;;;5156793;27;20183;-73
2021/03/27 11:24:06;;;;;;;1.10;1.00;;;;;;;;;;5156525;27;20202;-72
2021/03/27 11:26:44;;;;;;;1.95;1.75;;;;;;;;;;5156393;27;20190;-72
2021/03/27 11:29:27;;;;;;;1.55;1.10;;;;;;;;;;5156017;27;20237;-72
2021/03/27 11:32:00;;;;;;;1.73;1.20;;;;;;;;;;5156364;27;20553;-73
2021/03/27 11:34:32;;;;;;;3.40;1.60;;;;;;;;;;5156127;27;20282;-72
2021/03/27 11:37:03;;;;;;;5.38;0.73;;;;;;;;;;5156245;27;20219;-73
2021/03/27 11:39:34;;;;;;;3.63;1.33;;;;;;;;;;5156349;27;20195;-73
2021/03/27 11:42:05;;;;;;;6.38;1.40;;;;;;;;;;5156324;27;20199;-72
2021/03/27 11:44:48;;;;;;;1.60;1.13;;;;;;;;;;5156197;27;20185;-73
2021/03/27 11:47:22;;;;;;;1.65;0.82;;;;;;;;;;5156096;27;22479;-74
2021/03/27 11:49:51;;;;;;;12.02;1.80;;;;;;;;;;5156479;27;20264;-71
2021/03/27 11:52:21;;;;;;;2.65;0.90;;;;;;;;;;5155907;27;20537;-72
2021/03/27 11:54:51;;;;;;;3.38;1.10;;;;;;;;;;5155907;27;20236;-72
2021/03/27 11:57:22;;;;;;;1.65;0.90;;;;;;;;;;5155397;27;20196;-72
2021/03/27 12:02:50;;;;;;;1.33;0.85;;;;;;;;;;5155605;27;20176;-72
2021/03/27 12:05:21;;;;;;;1.60;1.23;;;;;;;;;;5156208;27;20720;-72
2021/03/27 12:07:53;;;;;;;4.65;1.20;;;;;;;;;;5155328;27;20296;-72
2021/03/27 12:10:28;;;;;;;8.65;1.48;;;;;;;;;;5155449;27;20205;-71
2021/03/27 12:13:01;;;;;;;2.45;1.10;;;;;;;;;;5155632;27;20236;-72
2021/03/27 12:15:30;;;;;;;2.42;1.10;;;;;;;;;;5155417;27;20205;-72
2021/03/27 12:18:00;;;;;;;2.92;1.25;;;;;;;;;;5156039;27;20194;-72
2021/03/27 12:20:35;;;;;;;2.85;1.60;;;;;;;;;;5155176;27;20201;-72
2021/03/27 12:23:12;;;;;;;1.30;1.17;;;;;;;;;;5155341;27;20211;-72
2021/03/27 12:25:46;;;;;;;4.05;0.82;;;;;;;;;;5154562;27;20200;-72
2021/03/27 12:28:16;;;;;;;5.50;1.90;;;;;;;;;;5155232;27;20210;-71
2021/03/27 12:30:46;;;;;;;13.30;2.13;;;;;;;;;;5154555;27;20293;-71
2021/03/27 12:33:14;;;;;;;5.13;1.50;;;;;;;;;;5155056;27;20327;-72
2021/03/27 12:35:48;;;;;;;2.58;1.50;;;;;;;;;;5155093;27;20230;-72
2021/03/27 12:38:27;;;;;;;4.13;1.35;;;;;;;;;;5154908;27;20258;-72
2021/03/27 12:40:57;;;;;;;1.30;1.20;;;;;;;;;;5155144;27;20511;-71
2021/03/27 12:43:25;;;;;;;1.55;1.00;;;;;;;;;;5155123;27;20190;-71
2021/03/27 12:46:02;;;;;;;3.67;1.15;;;;;;;;;;5155699;27;20200;-72
2021/03/27 12:48:30;;;;;;;1.85;1.40;;;;;;;;;;5155451;27;20210;-71
2021/03/27 12:51:03;;;;;;;3.22;1.35;;;;;;;;;;5155576;27;20590;-71
2021/03/27 12:53:44;;;;;;;1.90;0.90;;;;;;;;;;5154892;27;20205;-72
2021/03/27 12:56:17;;;;;;;1.08;0.75;;;;;;;;;;5150543;27;20288;-72
2021/03/27 12:58:46;;;;;;;3.50;1.10;;;;;;;;;;5154521;27;20197;-72
2021/03/27 13:01:21;;;;;;;1.15;1.05;;;;;;;;;;5154564;27;20254;-71
2021/03/27 13:04:18;;;;;;;1.20;1.10;;;;;;;;;;5154913;27;20204;-72
2021/03/27 13:06:53;;;;;;;0.77;0.68;;;;;;;;;;5154157;27;20272;-72
2021/03/27 13:09:36;;;;;;;2.72;1.13;;;;;;;;;;5155114;27;20214;-71
2021/03/27 13:12:06;;;;;;;2.38;1.35;;;;;;;;;;5154822;27;20198;-72
2021/03/27 13:14:53;;;;;;;1.60;0.98;;;;;;;;;;5154413;27;20307;-72
2021/03/27 13:17:21;;;;;;;3.55;1.30;;;;;;;;;;5153994;27;20207;-72
2021/03/27 13:19:54;;;;;;;3.08;1.05;;;;;;;;;;5154047;27;20214;-72
2021/03/27 13:22:23;;;;;;;9.63;1.48;;;;;;;;;;5154747;27;20701;-72
2021/03/27 13:25:10;;;;;;;1.40;0.85;;;;;;;;;;5154094;27;20565;-73
2021/03/27 13:27:39;;;;;;;3.40;0.93;;;;;;;;;;5145519;27;20222;-73
2021/03/27 13:30:16;;;;;;;1.27;0.93;;;;;;;;;;5154672;27;20192;-72
2021/03/27 13:32:43;;;;;;;3.35;1.17;;;;;;;;;;5154655;27;20673;-72
2021/03/27 13:35:15;;;;;;;7.28;1.55;;;;;;;;;;5154928;27;20215;-72
2021/03/27 13:37:47;;;;;;;0.93;0.70;;;;;;;;;;5153320;27;20286;-72
2021/03/27 13:40:17;;;;;;;0.88;0.73;;;;;;;;;;5154599;27;20185;-73
2021/03/27 13:42:47;;;;;;;2.83;1.30;;;;;;;;;;5153725;27;20204;-72
2021/03/27 13:45:30;;;;;;;1.00;0.90;;;;;;;;;;5154369;27;20590;-72
2021/03/27 13:48:04;;;;;;;3.47;1.77;;;;;;;;;;5153936;27;20301;-71
2021/03/27 13:50:45;;;;;;;2.28;1.00;;;;;;;;;;5153776;27;20203;-71
2021/03/27 13:53:18;;;;;;;2.90;1.70;;;;;;;;;;5149948;27;20198;-71
2021/03/27 13:55:49;;;;;;;1.10;1.00;;;;;;;;;;5153798;27;20202;-71
2021/03/27 13:58:20;;;;;;;5.88;1.92;;;;;;;;;;5153850;27;20327;-73
2021/03/27 14:00:51;;;;;;;6.60;2.03;;;;;;;;;;5153907;27;20201;-72
2021/03/27 14:03:32;;;;;;;1.10;0.80;;;;;;;;;;5154040;27;20186;-72
2021/03/27 14:06:01;;;;;;;7.22;2.10;;;;;;;;;;5132053;27;20250;-71
2021/03/27 14:08:36;;;;;;;1.90;1.33;;;;;;;;;;5154437;27;20217;-71
2021/03/27 14:11:03;;;;;;;3.10;1.63;;;;;;;;;;5154091;27;20254;-71
2021/03/27 14:13:33;;;;;;;3.65;2.00;;;;;;;;;;5153606;27;20220;-72
2021/03/27 14:16:03;;;;;;;7.93;2.10;;;;;;;;;;5154069;27;20209;-71
2021/03/27 14:18:45;;;;;;;3.05;1.10;;;;;;;;;;5153751;27;20195;-72
2021/03/27 14:21:18;;;;;;;2.08;1.38;;;;;;;;;;5152551;27;20194;-70
2021/03/27 14:23:55;;;;;;;7.10;1.30;;;;;;;;;;5133315;28;20207;-71
2021/03/27 14:26:23;;;;;;;6.82;1.95;;;;;;;;;;5133409;28;20600;-72
2021/03/27 14:28:54;;;;;;;4.25;2.17;;;;;;;;;;5132772;28;20664;-72
2021/03/27 14:31:36;;;;;;;3.17;1.55;;;;;;;;;;5132652;28;20213;-72
2021/03/27 14:34:06;;;;;;;4.82;1.67;;;;;;;;;;5132653;28;20322;-73
2021/03/27 14:36:39;;;;;;;4.32;1.75;;;;;;;;;;5132402;28;20642;-73
2021/03/27 14:39:24;;;;;;;4.03;1.90;;;;;;;;;;5151903;27;20196;-72
2021/03/27 14:41:57;;;;;;;7.35;2.70;;;;;;;;;;5150016;27;20593;-72
2021/03/27 14:44:28;;;;;;;2.17;1.40;;;;;;;;;;5153269;27;20501;-73
2021/03/27 14:46:58;;;;;;;3.13;1.48;;;;;;;;;;5152488;27;20221;-72
2021/03/27 14:49:42;;;;;;;2.53;1.98;;;;;;;;;;5154085;27;20590;-72
2021/03/27 14:52:15;;;;;;;5.90;2.55;;;;;;;;;;5156738;27;20205;-72
2021/03/27 14:54:45;;;;;;;4.07;1.80;;;;;;;;;;5156954;27;20538;-72
2021/03/27 14:57:18;;;;;;;4.72;2.05;;;;;;;;;;5154454;27;20194;-73
2021/03/27 14:59:45;;;;;;;5.13;2.30;;;;;;;;;;5157414;27;20186;-73
2021/03/27 15:02:18;;;;;;;11.02;2.05;;;;;;;;;;5153247;27;20636;-73
2021/03/27 15:04:50;;;;;;;3.40;1.48;;;;;;;;;;5147416;27;20244;-73
2021/03/27 15:07:18;;;;;;;2.80;1.85;;;;;;;;;;5156971;27;20197;-73
2021/03/27 15:10:05;;;;;;;2.88;1.25;;;;;;;;;;5157035;27;20360;-72
2021/03/27 15:12:34;;;;;;;2.38;1.48;;;;;;;;;;5112620;27;20287;-72
2021/03/27 15:15:02;;;;;;;3.05;2.03;;;;;;;;;;5156422;27;20606;-73
2021/03/27 15:17:35;;;;;;;1.17;0.80;;;;;;;;;;5156058;27;20551;-74
2021/03/27 15:20:16;;;;;;;2.47;1.52;;;;;;;;;;5154508;27;20207;-72
2021/03/27 15:22:45;;;;;;;2.85;1.25;;;;;;;;;;5155808;27;20202;-73
2021/03/27 15:28:05;;;;;;;3.80;2.58;;;;;;;;;;5156169;27;20253;-71
2021/03/27 15:30:36;;;;;;;3.17;1.75;;;;;;;;;;5155715;27;20256;-72
2021/03/27 15:33:07;;;;;;;7.78;1.98;;;;;;;;;;5156202;27;20252;-72